Time;durP1;ratioP1;P1;durP2;ratioP2;P2;SDS_P1;SDS_P2;PMS_P1;PMS_P2;Temp;Humidity;BMP_temperature;BMP_pressure;BME280_temperature;BME280_humidity;BME280_pressure;Samples;Min_cycle;Max_cycle;Signal;HPM_P1;HPM_P2
2021/12/20 00:00:22;;;;;;;4.67;0.90;;;2.50;99.90;;;;;;10423813;28;20195;-78
2021/12/20 00:05:46;;;;;;;2.37;1.03;;;2.60;99.90;;;;;;10406635;28;20242;-77
2021/12/20 00:11:08;;;;;;;2.17;1.00;;;2.60;99.90;;;;;;10393135;28;20196;-79
2021/12/20 00:16:30;;;;;;;4.07;1.33;;;2.60;99.90;;;;;;10406291;28;20200;-80
2021/12/20 00:21:52;;;;;;;2.83;1.20;;;2.60;99.90;;;;;;10420211;28;20196;-78
2021/12/20 00:27:19;;;;;;;2.97;0.80;;;2.60;99.90;;;;;;10449827;28;20437;-80
2021/12/20 00:32:40;;;;;;;2.87;1.13;;;2.70;99.90;;;;;;10463587;28;20196;-81
2021/12/20 00:43:43;;;;;;;4.20;1.00;;;2.70;99.90;;;;;;10446585;28;20225;-80
2021/12/20 00:49:05;;;;;;;3.70;0.77;;;2.70;99.90;;;;;;10462920;28;20196;-79
2021/12/20 00:54:26;;;;;;;1.90;0.60;;;2.80;99.90;;;;;;10446131;28;20479;-80
2021/12/20 00:59:49;;;;;;;1.23;0.70;;;2.90;99.90;;;;;;10446448;28;20191;-78
2021/12/20 01:05:14;;;;;;;4.87;0.90;;;2.80;99.90;;;;;;10450069;28;20219;-78
2021/12/20 01:10:48;;;;;;;2.60;0.90;;;2.70;99.90;;;;;;10471332;28;20230;-78
2021/12/20 01:16:12;;;;;;;2.87;1.07;;;2.70;99.90;;;;;;10454242;28;20204;-78
2021/12/20 01:21:34;;;;;;;1.53;0.83;;;2.60;99.90;;;;;;10470343;28;20196;-78
2021/12/20 01:26:57;;;;;;;2.73;0.70;;;2.70;99.90;;;;;;10426250;28;20557;-78
2021/12/20 01:32:19;;;;;;;3.17;0.80;;;2.70;99.90;;;;;;10426568;28;20238;-78
2021/12/20 01:37:41;;;;;;;1.03;0.70;;;2.60;99.90;;;;;;10428761;28;20228;-78
2021/12/20 01:43:04;;;;;;;1.80;0.70;;;2.50;99.90;;;;;;10428953;28;20201;-78
2021/12/20 01:48:26;;;;;;;3.30;0.57;;;2.70;99.90;;;;;;10428425;28;20200;-78
2021/12/20 01:53:48;;;;;;;2.80;1.03;;;2.60;99.90;;;;;;10432411;28;20195;-78
2021/12/20 01:59:11;;;;;;;1.90;0.80;;;2.60;99.90;;;;;;10452221;28;20197;-78
2021/12/20 02:04:49;;;;;;;2.40;0.80;;;2.60;99.90;;;;;;10451182;28;20310;-78
2021/12/20 02:10:12;;;;;;;3.40;0.80;;;2.50;99.90;;;;;;10438458;28;20199;-79
2021/12/20 02:15:34;;;;;;;2.10;0.80;;;2.50;99.90;;;;;;10451585;28;20191;-79
2021/12/20 02:20:57;;;;;;;5.03;1.30;;;2.50;99.90;;;;;;10436249;28;20193;-78
2021/12/20 02:26:22;;;;;;;0.83;0.60;;;2.40;99.90;;;;;;10450797;28;20295;-78
2021/12/20 02:37:27;;;;;;;2.60;0.83;;;2.40;99.90;;;;;;10467680;28;20398;-78
2021/12/20 02:42:51;;;;;;;2.70;0.90;;;2.40;99.90;;;;;;10437224;28;20203;-78
2021/12/20 02:48:13;;;;;;;2.93;0.90;;;2.40;99.90;;;;;;10467169;28;20449;-78
2021/12/20 02:53:35;;;;;;;1.80;1.00;;;2.30;99.90;;;;;;10436986;28;20191;-78
2021/12/20 02:58:57;;;;;;;3.50;1.33;;;2.30;99.90;;;;;;10467088;28;20266;-79
2021/12/20 03:04:21;;;;;;;2.60;1.30;;;2.30;99.90;;;;;;10450103;28;20224;-78
2021/12/20 03:09:49;;;;;;;2.20;1.20;;;2.30;99.90;;;;;;10449909;28;20199;-79
2021/12/20 03:15:17;;;;;;;4.07;1.10;;;2.30;99.90;;;;;;10449107;28;20200;-78
2021/12/20 03:20:41;;;;;;;3.73;1.10;;;2.20;99.90;;;;;;10466292;28;20192;-78
2021/12/20 03:26:04;;;;;;;2.40;1.50;;;2.20;99.90;;;;;;10465088;28;20216;-77
2021/12/20 03:31:25;;;;;;;3.73;1.27;;;2.10;99.90;;;;;;10448931;28;20245;-78
2021/12/20 03:36:47;;;;;;;1.77;0.97;;;2.20;99.90;;;;;;10465120;28;20326;-78
2021/12/20 03:42:09;;;;;;;2.50;1.00;;;2.20;99.90;;;;;;10448492;28;20195;-79
2021/12/20 03:47:31;;;;;;;1.70;1.00;;;2.10;99.90;;;;;;10420606;28;20541;-78
2021/12/20 03:52:54;;;;;;;3.47;1.83;;;2.10;99.90;;;;;;10407430;28;20192;-78
2021/12/20 03:58:16;;;;;;;4.73;1.40;;;2.00;99.90;;;;;;10431238;28;20375;-78
2021/12/20 04:03:40;;;;;;;4.73;1.77;;;1.90;99.90;;;;;;10434216;28;20200;-78
2021/12/20 04:09:04;;;;;;;20.73;10.80;;;2.00;99.90;;;;;;10434219;28;20206;-79
2021/12/20 04:14:27;;;;;;;54.93;17.00;;;2.00;99.90;;;;;;10446989;28;20198;-78
2021/12/20 04:19:49;;;;;;;75.57;21.37;;;2.00;99.90;;;;;;10464548;28;20196;-78
2021/12/20 04:25:12;;;;;;;83.13;24.07;;;2.10;99.90;;;;;;10437795;28;20231;-78
2021/12/20 04:30:34;;;;;;;154.83;42.93;;;2.10;99.90;;;;;;10422695;28;20243;-79
2021/12/20 04:35:56;;;;;;;36.10;13.00;;;2.10;99.90;;;;;;10394547;28;20259;-78
2021/12/20 04:41:18;;;;;;;54.10;18.27;;;2.10;99.90;;;;;;10469795;28;20196;-78
2021/12/20 04:46:40;;;;;;;37.20;13.80;;;2.10;99.90;;;;;;10438552;28;20414;-78
2021/12/20 04:52:03;;;;;;;32.57;12.73;;;2.10;99.90;;;;;;10463239;28;20196;-79
2021/12/20 04:57:24;;;;;;;25.77;9.50;;;2.00;99.90;;;;;;10445923;28;20525;-78
2021/12/20 05:02:47;;;;;;;16.00;7.13;;;2.00;99.90;;;;;;10432625;28;20238;-78
2021/12/20 05:08:15;;;;;;;13.90;6.83;;;1.90;99.90;;;;;;10463529;28;20220;-78
2021/12/20 05:13:37;;;;;;;13.47;7.27;;;1.90;99.90;;;;;;10432344;28;20199;-78
2021/12/20 05:18:59;;;;;;;9.97;5.63;;;1.80;99.90;;;;;;10462813;28;20206;-78
2021/12/20 05:24:21;;;;;;;8.67;4.60;;;1.80;99.90;;;;;;10445622;28;20226;-78
2021/12/20 05:29:44;;;;;;;6.67;3.70;;;1.80;99.90;;;;;;10462549;28;20199;-78
2021/12/20 05:35:07;;;;;;;9.53;3.77;;;1.70;99.90;;;;;;10431827;28;20270;-78
2021/12/20 05:40:29;;;;;;;4.47;3.03;;;1.70;99.90;;;;;;10445165;28;20280;-79
2021/12/20 05:45:51;;;;;;;5.47;3.00;;;1.60;99.90;;;;;;10430877;28;20231;-79
2021/12/20 05:51:14;;;;;;;11.73;3.67;;;1.50;99.90;;;;;;10448506;28;20205;-79
2021/12/20 05:56:36;;;;;;;5.87;3.20;;;1.50;99.90;;;;;;10452365;28;20199;-79
2021/12/20 06:01:58;;;;;;;9.80;3.00;;;;;;;;;;10483810;28;20190;-79
2021/12/20 06:07:21;;;;;;;4.60;2.17;;;1.30;99.90;;;;;;10483708;28;20261;-78
2021/12/20 06:12:44;;;;;;;7.07;2.90;;;1.30;99.90;;;;;;10483676;28;20241;-79
2021/12/20 06:18:06;;;;;;;4.27;2.30;;;1.40;99.90;;;;;;10454970;28;20295;-79
2021/12/20 06:23:28;;;;;;;6.53;2.60;;;1.50;99.90;;;;;;10436715;28;20230;-78
2021/12/20 06:28:51;;;;;;;2.97;1.60;;;1.60;99.90;;;;;;10451424;28;20253;-78
2021/12/20 06:34:21;;;;;;;6.57;2.67;;;1.60;99.90;;;;;;10451490;28;20553;-78
2021/12/20 06:39:43;;;;;;;18.50;7.13;;;1.50;99.90;;;;;;10464320;28;20192;-78
2021/12/20 06:45:07;;;;;;;15.87;11.00;;;1.50;99.90;;;;;;10437110;28;20289;-78
2021/12/20 06:50:30;;;;;;;17.73;11.43;;;1.40;99.90;;;;;;10450409;28;20580;-78
2021/12/20 06:55:51;;;;;;;49.00;28.30;;;1.50;99.90;;;;;;10463695;28;20363;-78
2021/12/20 07:01:13;;;;;;;26.93;12.33;;;1.40;99.90;;;;;;10449063;28;20279;-79
2021/12/20 07:06:36;;;;;;;19.77;11.33;;;1.30;99.90;;;;;;10449724;28;20230;-78
2021/12/20 07:12:00;;;;;;;19.30;10.40;;;1.30;99.90;;;;;;10436373;28;20204;-79
2021/12/20 07:17:23;;;;;;;15.70;7.90;;;1.40;99.90;;;;;;10449564;28;20204;-79
2021/12/20 07:22:45;;;;;;;14.20;6.83;;;1.40;99.90;;;;;;10461309;28;20363;-78
2021/12/20 07:28:07;;;;;;;16.33;7.27;;;1.30;99.90;;;;;;10465626;28;20549;-79
2021/12/20 07:33:29;;;;;;;23.77;13.33;;;1.30;99.90;;;;;;10435377;28;20246;-79
2021/12/20 07:38:52;;;;;;;25.00;11.60;;;1.40;99.90;;;;;;10446281;28;20227;-79
2021/12/20 07:44:15;;;;;;;46.87;24.17;;;1.40;99.90;;;;;;10448697;28;20499;-77
2021/12/20 07:49:38;;;;;;;19.67;12.10;;;1.40;99.90;;;;;;10461775;28;20297;-80
2021/12/20 07:55:01;;;;;;;54.83;26.80;;;1.50;99.90;;;;;;10465209;28;20254;-79
2021/12/20 08:00:27;;;;;;;23.30;13.73;;;1.40;99.90;;;;;;10437329;28;20203;-78
2021/12/20 08:05:50;;;;;;;12.00;7.23;;;1.40;99.90;;;;;;10410166;28;20220;-79
2021/12/20 08:11:12;;;;;;;19.37;10.43;;;1.50;99.90;;;;;;10446952;28;20191;-79
2021/12/20 08:16:35;;;;;;;20.30;9.50;;;1.60;99.90;;;;;;10447363;28;20207;-79
2021/12/20 08:21:58;;;;;;;30.77;13.87;;;1.70;99.90;;;;;;10447006;28;20199;-81
2021/12/20 08:27:20;;;;;;;28.80;13.83;;;1.80;99.90;;;;;;10448291;28;20223;-81
2021/12/20 08:32:43;;;;;;;15.10;6.73;;;1.90;99.90;;;;;;10428407;28;20255;-81
2021/12/20 08:38:06;;;;;;;9.47;3.97;;;2.00;99.90;;;;;;10425965;28;20246;-81
2021/12/20 08:43:29;;;;;;;6.07;3.40;;;2.20;99.90;;;;;;10400701;28;20503;-79
2021/12/20 08:48:52;;;;;;;19.30;7.17;;;2.10;99.90;;;;;;10400425;28;20562;-80
2021/12/20 08:54:14;;;;;;;11.57;6.23;;;1.90;99.90;;;;;;10417701;28;20536;-80
2021/12/20 08:59:37;;;;;;;10.93;4.57;;;1.80;99.90;;;;;;10443042;28;20200;-82
2021/12/20 09:04:59;;;;;;;12.47;5.80;;;1.80;99.90;;;;;;10465951;28;20226;-81
2021/12/20 09:10:21;;;;;;;9.77;4.43;;;1.90;99.90;;;;;;10468154;28;20230;-81
2021/12/20 09:15:45;;;;;;;10.00;4.23;;;2.10;99.90;;;;;;10453097;28;20202;-80
2021/12/20 09:21:10;;;;;;;12.90;6.10;;;2.10;99.90;;;;;;10440676;28;20206;-80
2021/12/20 09:26:32;;;;;;;35.47;17.47;;;2.10;99.90;;;;;;10474230;28;20436;-80
2021/12/20 09:31:55;;;;;;;14.90;6.40;;;2.00;99.90;;;;;;10446777;28;20184;-80
2021/12/20 09:37:18;;;;;;;22.27;11.23;;;1.90;99.90;;;;;;10459215;28;20222;-81
2021/12/20 09:42:50;;;;;;;18.43;8.70;;;1.80;99.90;;;;;;10446129;28;20200;-80
2021/12/20 09:48:16;;;;;;;17.70;8.50;;;1.90;99.90;;;;;;10472833;28;20231;-81
2021/12/20 09:53:38;;;;;;;18.13;7.20;;;1.90;99.90;;;;;;10449006;28;20270;-83
2021/12/20 09:59:01;;;;;;;13.10;5.30;;;2.00;99.90;;;;;;10438585;28;20527;-82
2021/12/20 10:04:24;;;;;;;23.40;10.00;;;2.00;99.90;;;;;;10464569;28;20203;-81
2021/12/20 10:09:48;;;;;;;19.13;7.97;;;2.00;99.90;;;;;;10448338;28;20551;-83
2021/12/20 10:15:12;;;;;;;20.70;6.40;;;2.00;99.90;;;;;;10450352;28;20222;-83
2021/12/20 10:20:36;;;;;;;44.47;14.00;;;1.90;99.90;;;;;;10455406;28;20215;-84
2021/12/20 10:26:10;;;;;;;25.10;10.87;;;1.50;99.90;;;;;;10472257;28;20230;-81
2021/12/20 10:31:32;;;;;;;22.07;11.53;;;1.40;99.90;;;;;;10480978;28;20325;-80
2021/12/20 10:36:59;;;;;;;22.60;11.50;;;1.40;99.90;;;;;;10454154;28;20250;-81
2021/12/20 10:42:29;;;;;;;13.17;7.10;;;1.40;99.90;;;;;;10474399;28;20222;-81
2021/12/20 10:47:51;;;;;;;17.93;9.00;;;1.50;99.90;;;;;;10435726;28;20212;-81
2021/12/20 10:53:21;;;;;;;20.30;9.23;;;1.60;99.90;;;;;;10458288;28;20509;-82
2021/12/20 10:58:43;;;;;;;15.10;7.33;;;1.50;99.90;;;;;;10455493;28;20274;-85
2021/12/20 11:04:12;;;;;;;17.63;8.57;;;1.70;99.90;;;;;;10455717;28;20196;-81
2021/12/20 11:09:37;;;;;;;16.67;7.47;;;1.60;99.90;;;;;;10455896;28;20223;-80
2021/12/20 11:15:04;;;;;;;18.97;6.87;;;1.80;99.90;;;;;;10454981;28;20191;-80
2021/12/20 11:20:26;;;;;;;15.67;7.13;;;2.60;99.90;;;;;;10445241;28;20205;-81
2021/12/20 11:25:49;;;;;;;22.10;9.33;;;3.20;99.90;;;;;;10418941;28;20240;-83
2021/12/20 11:31:12;;;;;;;25.13;10.37;;;3.10;99.90;;;;;;10425370;28;20193;-80
2021/12/20 11:36:35;;;;;;;20.77;8.97;;;2.90;99.90;;;;;;10487184;28;20232;-79
2021/12/20 11:41:57;;;;;;;23.73;9.30;;;2.60;99.90;;;;;;10456763;28;20184;-80
2021/12/20 11:47:50;;;;;;;26.43;9.50;;;2.10;99.90;;;;;;10459745;28;20534;-79
2021/12/20 11:53:14;;;;;;;31.43;11.03;;;1.70;99.90;;;;;;10468047;28;20199;-83
2021/12/20 11:58:45;;;;;;;37.87;14.37;;;1.30;99.90;;;;;;10447507;28;20200;-83
2021/12/20 12:04:07;;;;;;;178.17;73.97;;;1.20;99.90;;;;;;10458607;28;20380;-82
2021/12/20 12:09:56;;;;;;;102.30;47.80;;;1.20;99.90;;;;;;10432181;28;20315;-84
2021/12/20 12:15:32;;;;;;;67.40;29.47;;;1.40;99.90;;;;;;10443444;28;20408;-83
2021/12/20 12:20:55;;;;;;;32.57;14.43;;;1.40;99.90;;;;;;10431439;28;20208;-81
2021/12/20 12:26:33;;;;;;;202.43;69.43;;;1.20;99.90;;;;;;10457316;28;20470;-81
2021/12/20 12:32:00;;;;;;;36.10;19.87;;;1.20;99.90;;;;;;10442462;28;20213;-82
2021/12/20 12:37:34;;;;;;;22.93;10.90;;;1.30;99.90;;;;;;10470092;28;20244;-82
2021/12/20 12:42:58;;;;;;;32.57;13.87;;;1.40;99.90;;;;;;10401941;28;20217;-81
2021/12/20 12:48:39;;;;;;;23.03;7.97;;;1.30;99.90;;;;;;10422948;28;20574;-80
2021/12/20 12:54:02;;;;;;;15.97;6.67;;;1.10;99.90;;;;;;10440463;28;20279;-81
2021/12/20 12:59:25;;;;;;;25.73;12.20;;;0.80;99.90;;;;;;10443275;28;20194;-87
2021/12/20 13:04:49;;;;;;;33.37;15.43;;;;;;;;;;10450586;28;20290;-82
2021/12/20 13:10:29;;;;;;;30.07;14.17;;;0.50;99.90;;;;;;10436231;28;20267;-81
2021/12/20 13:15:56;;;;;;;15.73;6.93;;;0.50;99.90;;;;;;10449161;28;20226;-81
2021/12/20 13:21:25;;;;;;;13.67;5.87;;;0.60;99.90;;;;;;10467545;28;20206;-81
2021/12/20 13:26:47;;;;;;;29.90;10.30;;;0.60;99.90;;;;;;10442041;28;20223;-83
2021/12/20 13:32:12;;;;;;;16.03;6.90;;;0.60;99.90;;;;;;10448737;28;20198;-79
2021/12/20 13:37:39;;;;;;;16.37;7.53;;;0.60;99.90;;;;;;10448201;28;20229;-83
2021/12/20 13:43:10;;;;;;;13.07;6.03;;;0.60;99.90;;;;;;10452736;28;20459;-86
2021/12/20 13:48:33;;;;;;;15.73;6.93;;;0.50;99.90;;;;;;10434790;28;20228;-81
2021/12/20 13:53:56;;;;;;;15.57;7.40;;;0.40;99.90;;;;;;10479183;28;20202;-83
2021/12/20 13:59:30;;;;;;;17.67;8.43;;;0.30;99.90;;;;;;10425739;28;20283;-82
2021/12/20 14:04:57;;;;;;;23.37;10.00;;;0.20;99.90;;;;;;10448690;28;20204;-80
2021/12/20 14:10:26;;;;;;;16.23;6.17;;;0.20;99.90;;;;;;10446453;28;20217;-77
2021/12/20 14:15:57;;;;;;;11.83;4.70;;;0.20;99.90;;;;;;10447197;28;20207;-80
2021/12/20 14:21:25;;;;;;;11.33;4.87;;;0.10;99.90;;;;;;10448649;28;20508;-85
2021/12/20 14:26:46;;;;;;;24.27;7.57;;;0.20;99.90;;;;;;10452475;28;20261;-80
2021/12/20 14:32:09;;;;;;;19.27;8.17;;;0.20;99.90;;;;;;10425313;28;20229;-78
2021/12/20 14:37:36;;;;;;;29.93;13.60;;;0.20;99.90;;;;;;10463172;28;20244;-80
2021/12/20 14:43:11;;;;;;;16.33;9.63;;;0.10;99.90;;;;;;10446536;28;20271;-78
2021/12/20 14:48:41;;;;;;;27.83;14.67;;;0.00;99.90;;;;;;10462917;28;20227;-80
2021/12/20 14:54:08;;;;;;;18.97;9.67;;;-0.10;99.90;;;;;;10445265;28;20332;-80
2021/12/20 14:59:32;;;;;;;16.47;8.87;;;-0.10;99.90;;;;;;10462091;28;20213;-80
2021/12/20 15:04:55;;;;;;;32.33;14.47;;;-0.10;99.90;;;;;;10432645;28;20201;-81
2021/12/20 15:10:17;;;;;;;39.23;16.80;;;0.00;99.90;;;;;;10445463;28;20212;-80
2021/12/20 15:15:39;;;;;;;47.50;20.33;;;0.10;99.90;;;;;;10426797;28;20508;-80
2021/12/20 15:21:03;;;;;;;43.67;20.43;;;0.10;99.90;;;;;;10459023;28;20230;-81
2021/12/20 15:26:25;;;;;;;42.10;17.33;;;0.20;99.90;;;;;;10413903;28;20238;-81
2021/12/20 15:31:47;;;;;;;29.50;12.27;;;0.20;99.90;;;;;;10458772;28;20230;-85
2021/12/20 15:37:09;;;;;;;35.27;13.80;;;0.30;99.90;;;;;;10456398;28;20242;-80
2021/12/20 15:42:33;;;;;;;38.87;18.03;;;0.30;99.90;;;;;;10444450;28;20416;-80
2021/12/20 15:47:56;;;;;;;28.50;14.70;;;0.40;99.90;;;;;;10430035;28;20230;-81
2021/12/20 15:53:18;;;;;;;15.40;6.23;;;0.40;99.90;;;;;;10443710;28;20245;-81
2021/12/20 15:59:02;;;;;;;14.83;8.57;;;0.40;99.90;;;;;;10448895;28;20269;-80
2021/12/20 16:04:28;;;;;;;8.10;5.10;;;0.30;99.90;;;;;;10460564;28;20208;-80
2021/12/20 16:09:51;;;;;;;24.50;10.63;;;0.30;99.90;;;;;;10449300;28;20540;-78
2021/12/20 16:15:20;;;;;;;17.80;7.27;;;0.30;99.90;;;;;;10460302;28;20218;-80
2021/12/20 16:20:45;;;;;;;15.80;7.73;;;0.30;99.90;;;;;;10432054;28;20227;-79
2021/12/20 16:26:07;;;;;;;16.43;7.37;;;0.20;99.90;;;;;;10445297;28;20228;-79
2021/12/20 16:31:29;;;;;;;15.87;6.43;;;0.20;99.90;;;;;;10445134;28;20198;-80
2021/12/20 16:36:51;;;;;;;22.17;10.43;;;0.20;99.90;;;;;;10461463;28;20433;-80
2021/12/20 16:42:13;;;;;;;16.30;7.60;;;0.10;99.90;;;;;;10431795;28;20207;-80
2021/12/20 16:47:38;;;;;;;13.77;5.83;;;0.20;99.90;;;;;;10445819;28;20235;-80
2021/12/20 16:53:00;;;;;;;21.23;8.33;;;0.20;99.90;;;;;;10432508;28;20224;-81
2021/12/20 16:58:22;;;;;;;15.97;6.30;;;0.10;99.90;;;;;;10462111;28;20244;-82
2021/12/20 17:09:06;;;;;;;17.47;6.13;;;0.10;99.90;;;;;;10417977;28;20217;-81
2021/12/20 17:14:29;;;;;;;20.03;7.23;;;0.00;99.90;;;;;;10420768;28;20199;-81
2021/12/20 17:19:51;;;;;;;19.00;7.90;;;0.00;99.90;;;;;;10404055;28;20277;-81
2021/12/20 17:25:15;;;;;;;28.00;12.13;;;0.00;99.90;;;;;;10440413;28;20202;-80
2021/12/20 17:30:38;;;;;;;20.70;9.60;;;0.00;99.90;;;;;;10458591;28;20200;-80
2021/12/20 17:36:00;;;;;;;15.57;6.70;;;0.00;99.90;;;;;;10444420;28;20238;-80
2021/12/20 17:41:22;;;;;;;13.73;5.70;;;0.00;99.90;;;;;;10445332;28;20202;-80
2021/12/20 17:46:44;;;;;;;16.93;8.53;;;0.10;99.90;;;;;;10447801;28;20226;-79
2021/12/20 17:52:07;;;;;;;27.63;11.73;;;0.10;99.90;;;;;;10468984;28;20257;-80
2021/12/20 17:57:32;;;;;;;24.70;10.20;;;0.10;99.90;;;;;;10452234;28;20496;-80
2021/12/20 18:02:55;;;;;;;18.10;7.83;;;0.10;99.90;;;;;;10424861;28;20380;-80
2021/12/20 18:08:17;;;;;;;17.03;5.57;;;0.20;99.90;;;;;;10397766;28;20234;-80
2021/12/20 18:13:40;;;;;;;20.63;7.87;;;0.20;99.90;;;;;;10423890;28;20200;-81
2021/12/20 18:19:03;;;;;;;30.90;18.33;;;0.20;99.90;;;;;;10450958;28;20212;-80
2021/12/20 18:24:25;;;;;;;18.43;8.13;;;0.10;99.90;;;;;;10444941;28;20201;-80
2021/12/20 18:29:47;;;;;;;18.57;7.03;;;-0.10;99.90;;;;;;10467060;28;20230;-80
2021/12/20 18:35:10;;;;;;;21.07;9.93;;;0.00;99.90;;;;;;10464052;28;20254;-80
2021/12/20 18:40:32;;;;;;;30.70;12.17;;;0.00;99.90;;;;;;10451493;28;20200;-80
2021/12/20 18:45:54;;;;;;;32.97;12.37;;;0.00;99.90;;;;;;10450228;28;20288;-80
2021/12/20 18:51:17;;;;;;;34.33;12.67;;;0.10;99.90;;;;;;10449889;28;20437;-80
2021/12/20 18:56:40;;;;;;;32.70;14.87;;;0.10;99.90;;;;;;10449797;28;20389;-80
2021/12/20 19:02:02;;;;;;;45.20;17.90;;;0.10;99.90;;;;;;10453546;28;20236;-80
2021/12/20 19:07:25;;;;;;;46.00;19.77;;;0.20;99.90;;;;;;10470683;28;20289;-79
2021/12/20 19:13:00;;;;;;;70.57;29.23;;;0.20;99.90;;;;;;10464042;28;20205;-80
2021/12/20 19:18:25;;;;;;;86.60;36.80;;;0.10;99.90;;;;;;10436600;28;20249;-80
2021/12/20 19:23:47;;;;;;;48.00;22.43;;;0.10;99.90;;;;;;10449517;28;20205;-80
2021/12/20 19:29:15;;;;;;;22.23;11.13;;;0.20;99.90;;;;;;10465923;28;20220;-80
2021/12/20 19:34:37;;;;;;;35.20;15.10;;;0.10;99.90;;;;;;10453348;28;20230;-80
2021/12/20 19:40:00;;;;;;;32.67;16.50;;;0.20;99.90;;;;;;10449273;28;20225;-80
2021/12/20 19:45:31;;;;;;;42.57;18.57;;;0.20;99.90;;;;;;10465867;28;20192;-80
2021/12/20 19:50:55;;;;;;;38.27;16.07;;;0.20;99.90;;;;;;10449956;28;20280;-80
2021/12/20 19:56:18;;;;;;;30.00;13.53;;;0.10;99.90;;;;;;10448260;28;20196;-80
2021/12/20 20:01:46;;;;;;;35.67;17.43;;;0.00;99.90;;;;;;10434437;28;20202;-80
2021/12/20 20:07:12;;;;;;;54.13;19.73;;;-0.10;99.90;;;;;;10479709;28;20226;-80
2021/12/20 20:12:34;;;;;;;47.37;18.03;;;-0.20;99.90;;;;;;10463939;28;20399;-80
2021/12/20 20:17:56;;;;;;;39.30;15.20;;;-0.30;99.90;;;;;;10461370;28;20203;-80
2021/12/20 20:23:19;;;;;;;27.87;11.43;;;-0.30;99.90;;;;;;10444757;28;20252;-80
2021/12/20 20:28:44;;;;;;;20.10;8.33;;;-0.30;99.90;;;;;;10447206;28;20264;-80
2021/12/20 20:34:07;;;;;;;20.00;7.17;;;-0.40;99.90;;;;;;10447158;28;20388;-81
2021/12/20 20:39:30;;;;;;;13.77;5.93;;;-0.40;99.90;;;;;;10433285;28;20488;-79
2021/12/20 20:44:52;;;;;;;27.23;8.37;;;-0.40;99.90;;;;;;10447106;28;20424;-80
2021/12/20 20:50:14;;;;;;;25.03;9.27;;;-0.50;99.90;;;;;;10446747;28;20235;-80
2021/12/20 20:55:36;;;;;;;22.43;9.57;;;-0.50;99.90;;;;;;10446274;28;20206;-80
2021/12/20 21:06:47;;;;;;;20.77;8.33;;;-0.80;99.90;;;;;;10463263;28;20403;-80
2021/12/20 21:12:14;;;;;;;25.67;10.30;;;-0.80;99.90;;;;;;10463005;28;20201;-79
2021/12/20 21:17:35;;;;;;;28.60;11.33;;;-0.90;99.90;;;;;;10446023;28;20200;-80
2021/12/20 21:22:57;;;;;;;32.60;13.33;;;-0.90;99.90;;;;;;10453621;28;20210;-79
2021/12/20 21:28:19;;;;;;;32.50;13.83;;;-1.10;99.90;;;;;;10440442;28;20421;-80
2021/12/20 21:33:41;;;;;;;51.43;19.37;;;-1.20;99.90;;;;;;10456718;28;20245;-80
2021/12/20 21:39:04;;;;;;;30.80;13.87;;;-1.20;99.90;;;;;;10454662;28;20219;-80
2021/12/20 21:44:26;;;;;;;25.80;12.73;;;-1.20;99.90;;;;;;10441663;28;20198;-80
2021/12/20 21:49:48;;;;;;;32.47;14.93;;;-1.20;99.90;;;;;;10455256;28;20230;-80
2021/12/20 21:55:10;;;;;;;27.90;10.17;;;-1.10;99.90;;;;;;10441573;28;20436;-80
2021/12/20 22:00:32;;;;;;;16.47;5.67;;;-1.00;99.90;;;;;;10454433;28;20239;-79
2021/12/20 22:05:54;;;;;;;26.30;8.23;;;-1.00;99.90;;;;;;10455101;28;20527;-80
2021/12/20 22:11:16;;;;;;;21.87;7.33;;;-1.10;99.90;;;;;;10454976;28;20206;-81
2021/12/20 22:16:39;;;;;;;26.57;10.40;;;-1.20;99.90;;;;;;10441587;28;20205;-80
2021/12/20 22:22:02;;;;;;;31.83;13.27;;;-1.30;99.90;;;;;;10470456;28;20225;-79
2021/12/20 22:27:23;;;;;;;38.70;15.97;;;-1.30;99.90;;;;;;10470926;28;20442;-80
2021/12/20 22:32:45;;;;;;;25.67;10.97;;;-1.30;99.90;;;;;;10441395;28;20274;-80
2021/12/20 22:38:08;;;;;;;45.87;18.57;;;-1.40;99.90;;;;;;10454521;28;20421;-80
2021/12/20 22:43:30;;;;;;;45.33;16.77;;;-1.30;99.90;;;;;;10439657;28;20388;-80
2021/12/20 22:48:54;;;;;;;41.57;15.00;;;-1.30;99.90;;;;;;10452618;28;20238;-80
2021/12/20 22:54:17;;;;;;;22.00;10.27;;;-1.30;99.90;;;;;;10470592;28;20194;-79
2021/12/20 22:59:39;;;;;;;19.80;7.80;;;-1.30;99.90;;;;;;10451782;28;20481;-80
2021/12/20 23:05:01;;;;;;;12.80;4.97;;;-1.30;99.90;;;;;;10438709;28;20425;-80
2021/12/20 23:10:24;;;;;;;9.93;4.90;;;-1.30;99.90;;;;;;10436873;28;20288;-80
2021/12/20 23:15:49;;;;;;;15.23;7.37;;;-1.30;99.90;;;;;;10436449;28;20205;-80
2021/12/20 23:21:16;;;;;;;18.20;9.97;;;-1.30;99.90;;;;;;10437453;28;20201;-80
2021/12/20 23:26:41;;;;;;;17.13;8.00;;;-1.20;99.90;;;;;;10415852;28;20220;-80
2021/12/20 23:32:03;;;;;;;23.07;12.27;;;-1.20;99.90;;;;;;10449324;28;20209;-79
2021/12/20 23:37:26;;;;;;;25.43;12.40;;;-1.10;99.90;;;;;;10480580;28;20391;-80
2021/12/20 23:43:05;;;;;;;33.17;13.17;;;-1.00;99.90;;;;;;10435263;28;20197;-80
2021/12/20 23:48:27;;;;;;;29.57;12.27;;;-0.90;99.90;;;;;;10448512;28;20421;-80
2021/12/20 23:53:49;;;;;;;20.77;9.30;;;-1.00;99.90;;;;;;10448660;28;20248;-81
2021/12/20 23:59:11;;;;;;;17.67;7.13;;;-1.10;99.90;;;;;;10451341;28;20224;-80
